Time;durP1;ratioP1;P1;durP2;ratioP2;P2;SDS_P1;SDS_P2;PMS_P1;PMS_P2;Temp;Humidity;BMP_temperature;BMP_pressure;BME280_temperature;BME280_humidity;BME280_pressure;Samples;Min_cycle;Max_cycle;Signal;HPM_P1;HPM_P2
2021/12/30 00:01:00;;;;;;;10.07;6.70;;;9.40;99.90;;;;;;4861825;29;20026;-77
2021/12/30 00:03:26;;;;;;;8.98;5.43;;;9.40;99.90;;;;;;4861345;29;20033;-80
2021/12/30 00:05:52;;;;;;;6.55;5.22;;;9.40;99.90;;;;;;4861355;29;20541;-79
2021/12/30 00:08:19;;;;;;;8.63;6.72;;;9.40;99.90;;;;;;4861541;29;20025;-81
2021/12/30 00:10:45;;;;;;;9.02;6.50;;;9.50;99.90;;;;;;4861601;29;20428;-81
2021/12/30 00:13:11;;;;;;;17.60;7.78;;;9.50;99.90;;;;;;4861258;29;20073;-79
2021/12/30 00:15:38;;;;;;;8.68;6.95;;;9.50;99.90;;;;;;4861293;29;20033;-81
2021/12/30 00:18:05;;;;;;;12.65;8.18;;;9.50;99.90;;;;;;4861330;29;20038;-80
2021/12/30 00:20:31;;;;;;;13.68;8.30;;;9.50;99.90;;;;;;4844987;29;20041;-74
2021/12/30 00:22:58;;;;;;;10.75;6.97;;;9.50;99.90;;;;;;4861273;29;20022;-80
2021/12/30 00:25:24;;;;;;;10.27;7.43;;;9.50;99.90;;;;;;4859950;29;20041;-81
2021/12/30 00:27:49;;;;;;;12.48;7.95;;;9.50;99.90;;;;;;4860624;29;20046;-75
2021/12/30 00:30:15;;;;;;;12.85;8.38;;;9.50;99.90;;;;;;4860815;29;20036;-81
2021/12/30 00:32:41;;;;;;;10.65;8.15;;;9.50;99.90;;;;;;4861002;29;20109;-78
2021/12/30 00:35:08;;;;;;;14.23;9.43;;;9.50;99.90;;;;;;4860891;29;20064;-80
2021/12/30 00:37:34;;;;;;;22.35;12.52;;;9.50;99.90;;;;;;4860841;29;20058;-81
2021/12/30 00:39:59;;;;;;;24.70;15.15;;;9.50;99.90;;;;;;4860800;29;20022;-81
2021/12/30 00:42:25;;;;;;;22.50;16.05;;;9.50;99.90;;;;;;4860809;29;20467;-81
2021/12/30 00:44:51;;;;;;;39.65;19.02;;;9.50;99.90;;;;;;4860835;29;20109;-73
2021/12/30 00:47:16;;;;;;;34.03;19.65;;;9.60;99.90;;;;;;4861519;29;20033;-74
2021/12/30 00:49:42;;;;;;;25.70;18.33;;;9.60;99.90;;;;;;4861822;29;20029;-81
2021/12/30 00:52:08;;;;;;;28.67;18.48;;;9.60;99.90;;;;;;4861212;29;20029;-77
2021/12/30 00:54:34;;;;;;;26.38;17.00;;;9.60;99.90;;;;;;4860896;29;20033;-80
2021/12/30 00:56:59;;;;;;;24.50;17.27;;;9.60;99.90;;;;;;4860879;29;20034;-81
2021/12/30 00:59:25;;;;;;;23.45;16.23;;;9.60;99.90;;;;;;4860824;29;20101;-81
2021/12/30 01:01:51;;;;;;;23.55;16.55;;;9.60;99.90;;;;;;4860695;29;20483;-82
2021/12/30 01:04:18;;;;;;;21.30;16.15;;;9.60;99.90;;;;;;4860421;29;20037;-77
2021/12/30 01:06:44;;;;;;;23.67;15.13;;;9.60;99.90;;;;;;4860763;29;20041;-80
2021/12/30 01:09:10;;;;;;;23.90;13.82;;;9.60;99.90;;;;;;4860712;29;20356;-78
2021/12/30 01:11:35;;;;;;;24.58;15.05;;;9.60;99.90;;;;;;4860557;29;20034;-81
2021/12/30 01:14:09;;;;;;;18.95;13.57;;;9.60;99.90;;;;;;4860454;29;20037;-78
2021/12/30 01:16:41;;;;;;;16.58;12.73;;;9.60;99.90;;;;;;4860488;29;20068;-81
2021/12/30 01:19:42;;;;;;;17.77;12.45;;;9.60;99.90;;;;;;4860570;29;20424;-79
2021/12/30 01:22:11;;;;;;;21.42;13.13;;;9.60;99.90;;;;;;4860689;29;20062;-81
2021/12/30 01:24:36;;;;;;;18.23;12.07;;;9.60;99.90;;;;;;4860106;29;20085;-80
2021/12/30 01:27:02;;;;;;;25.02;12.85;;;9.50;99.90;;;;;;4860378;29;20034;-81
2021/12/30 01:29:30;;;;;;;19.58;13.02;;;9.50;99.90;;;;;;4860288;29;20026;-81
2021/12/30 01:31:55;;;;;;;22.40;15.82;;;9.50;99.90;;;;;;4860570;29;20410;-79
2021/12/30 01:34:21;;;;;;;25.83;16.10;;;9.50;99.90;;;;;;4860245;29;20104;-78
2021/12/30 01:36:48;;;;;;;25.63;16.45;;;9.50;99.90;;;;;;4860417;29;20053;-79
2021/12/30 01:39:14;;;;;;;29.05;17.27;;;9.50;99.90;;;;;;4860294;29;20610;-80
2021/12/30 01:41:41;;;;;;;28.05;19.20;;;9.50;99.90;;;;;;4860320;29;20025;-76
2021/12/30 01:44:07;;;;;;;23.90;17.58;;;9.40;99.90;;;;;;4847644;29;20495;-81
2021/12/30 01:46:38;;;;;;;22.73;16.63;;;9.40;99.90;;;;;;4864342;29;20053;-77
2021/12/30 01:49:04;;;;;;;27.10;18.65;;;9.30;99.90;;;;;;4863859;29;20029;-81
2021/12/30 01:51:29;;;;;;;43.33;19.23;;;9.30;99.90;;;;;;4863542;29;20104;-79
2021/12/30 01:53:56;;;;;;;24.77;18.23;;;9.20;99.90;;;;;;4863678;29;20435;-75
2021/12/30 01:56:22;;;;;;;28.80;18.45;;;9.20;99.90;;;;;;4863822;29;20030;-80
2021/12/30 01:58:48;;;;;;;31.02;19.27;;;9.10;99.90;;;;;;4864137;29;20104;-81
2021/12/30 02:01:13;;;;;;;27.33;19.02;;;9.10;99.90;;;;;;4863971;29;20037;-79
2021/12/30 02:03:39;;;;;;;27.92;19.40;;;9.10;99.90;;;;;;4863586;29;20497;-80
2021/12/30 02:06:05;;;;;;;29.38;19.75;;;9.10;99.90;;;;;;4863619;29;20060;-82
2021/12/30 02:08:30;;;;;;;29.30;19.83;;;9.00;99.90;;;;;;4863396;29;20379;-80
2021/12/30 02:10:56;;;;;;;26.80;19.30;;;9.00;99.90;;;;;;4862965;29;20026;-82
2021/12/30 02:13:22;;;;;;;26.90;17.25;;;9.00;99.90;;;;;;4863263;29;20040;-80
2021/12/30 02:15:49;;;;;;;20.67;15.35;;;9.00;99.90;;;;;;4857316;29;20030;-79
2021/12/30 02:18:15;;;;;;;26.52;16.98;;;9.00;99.90;;;;;;4845029;29;20037;-78
2021/12/30 02:20:46;;;;;;;23.45;15.90;;;9.00;99.90;;;;;;4845023;29;20475;-79
2021/12/30 02:23:18;;;;;;;25.67;17.33;;;8.90;99.90;;;;;;4845140;29;20026;-81
2021/12/30 02:25:44;;;;;;;28.98;17.30;;;9.00;99.90;;;;;;4844432;29;20046;-81
2021/12/30 02:28:12;;;;;;;29.08;18.67;;;8.90;99.90;;;;;;4828182;29;20025;-74
2021/12/30 02:30:39;;;;;;;35.40;19.23;;;8.90;99.90;;;;;;4844959;29;20062;-81
2021/12/30 02:33:06;;;;;;;44.35;17.90;;;8.90;99.90;;;;;;4844749;29;20069;-77
2021/12/30 02:35:33;;;;;;;42.60;16.77;;;8.80;99.90;;;;;;4844663;29;20069;-80
2021/12/30 02:37:59;;;;;;;36.10;16.90;;;8.90;99.90;;;;;;4844630;29;20034;-73
2021/12/30 02:40:32;;;;;;;31.60;17.48;;;8.90;99.90;;;;;;4843094;29;20030;-75
2021/12/30 02:42:58;;;;;;;33.72;17.42;;;8.90;99.90;;;;;;4844425;29;20435;-78
2021/12/30 02:45:24;;;;;;;31.30;16.13;;;8.90;99.90;;;;;;4844013;29;20120;-79
2021/12/30 02:47:50;;;;;;;26.30;14.55;;;8.90;99.90;;;;;;4844302;29;20110;-77
2021/12/30 02:50:16;;;;;;;26.02;15.90;;;8.90;99.90;;;;;;4844748;29;20494;-73
2021/12/30 02:52:42;;;;;;;22.08;14.63;;;8.90;99.90;;;;;;4844070;29;20485;-73
2021/12/30 02:55:08;;;;;;;25.13;15.98;;;8.80;99.90;;;;;;4844209;29;20034;-81
2021/12/30 02:57:33;;;;;;;27.00;16.70;;;8.80;99.90;;;;;;4844231;29;20030;-80
2021/12/30 02:59:59;;;;;;;25.25;14.98;;;8.80;99.90;;;;;;4844631;29;20113;-80
2021/12/30 03:02:25;;;;;;;22.80;16.30;;;8.80;99.90;;;;;;4844484;29;20082;-81
2021/12/30 03:04:50;;;;;;;25.63;16.75;;;8.80;99.90;;;;;;4843589;29;20034;-80
2021/12/30 03:07:18;;;;;;;25.83;16.38;;;8.80;99.90;;;;;;4843876;29;20409;-77
2021/12/30 03:09:45;;;;;;;27.38;16.15;;;8.80;99.90;;;;;;4844228;29;20018;-82
2021/12/30 03:12:10;;;;;;;22.98;15.10;;;8.80;99.90;;;;;;4843957;29;20041;-82
2021/12/30 03:14:40;;;;;;;27.70;17.67;;;8.70;99.90;;;;;;4844172;29;20480;-81
2021/12/30 03:17:06;;;;;;;32.45;19.70;;;8.80;99.90;;;;;;4843869;29;20036;-80
2021/12/30 03:19:32;;;;;;;31.95;19.80;;;8.70;99.90;;;;;;4844119;29;20038;-72
2021/12/30 03:21:58;;;;;;;31.65;19.27;;;8.70;99.90;;;;;;4843869;29;20109;-80
2021/12/30 03:24:24;;;;;;;27.98;20.55;;;8.70;99.90;;;;;;4843668;29;20108;-82
2021/12/30 03:26:50;;;;;;;28.85;21.25;;;8.70;99.90;;;;;;4843429;29;20037;-81
2021/12/30 03:29:15;;;;;;;33.20;22.30;;;8.60;99.90;;;;;;4843661;29;20392;-81
2021/12/30 03:31:41;;;;;;;34.58;22.40;;;8.60;99.90;;;;;;4843267;29;20065;-81
2021/12/30 03:34:07;;;;;;;35.22;23.58;;;8.60;99.90;;;;;;4843717;29;20508;-78
2021/12/30 03:36:33;;;;;;;36.28;23.80;;;8.60;99.90;;;;;;4843416;29;20551;-81
2021/12/30 03:38:59;;;;;;;32.80;22.52;;;8.60;99.90;;;;;;4843801;29;20033;-81
2021/12/30 03:41:28;;;;;;;34.60;22.55;;;8.60;99.90;;;;;;4843802;29;20038;-71
2021/12/30 03:43:54;;;;;;;32.53;22.88;;;8.50;99.90;;;;;;4843570;29;20037;-82
2021/12/30 03:46:20;;;;;;;31.50;22.58;;;8.50;99.90;;;;;;4843293;29;20034;-81
2021/12/30 03:48:47;;;;;;;29.77;21.88;;;8.50;99.90;;;;;;4843375;29;20057;-75
2021/12/30 03:51:21;;;;;;;33.05;23.67;;;8.40;99.90;;;;;;4843573;29;20065;-77
2021/12/30 03:53:49;;;;;;;34.63;24.02;;;8.40;99.90;;;;;;4843463;29;20086;-72
2021/12/30 03:56:18;;;;;;;33.65;23.75;;;8.40;99.90;;;;;;4843311;29;20022;-81
2021/12/30 03:58:45;;;;;;;38.50;23.00;;;8.40;99.90;;;;;;4843307;29;20025;-80
2021/12/30 04:01:14;;;;;;;34.78;23.77;;;8.30;99.90;;;;;;4843140;29;20030;-81
2021/12/30 04:03:40;;;;;;;41.10;24.85;;;8.30;99.90;;;;;;4842961;29;20033;-75
2021/12/30 04:06:06;;;;;;;34.85;24.92;;;8.20;99.90;;;;;;4841713;29;20038;-77
2021/12/30 04:08:34;;;;;;;41.40;25.08;;;8.20;99.90;;;;;;4842800;29;20058;-78
2021/12/30 04:11:00;;;;;;;34.58;23.40;;;8.20;99.90;;;;;;4842690;29;20040;-74
2021/12/30 04:13:26;;;;;;;34.35;24.10;;;8.20;99.90;;;;;;4842836;29;20022;-82
2021/12/30 04:15:52;;;;;;;31.92;23.20;;;8.20;99.90;;;;;;4843083;29;20574;-81
2021/12/30 04:18:18;;;;;;;45.60;28.17;;;8.20;99.90;;;;;;4842880;29;20040;-80
2021/12/30 04:20:45;;;;;;;36.30;25.15;;;8.20;99.90;;;;;;4842904;29;20034;-81
2021/12/30 04:23:11;;;;;;;28.63;20.15;;;8.10;99.90;;;;;;4842895;29;20070;-81
2021/12/30 04:25:36;;;;;;;31.08;19.98;;;8.10;99.90;;;;;;4842887;29;20046;-80
2021/12/30 04:28:02;;;;;;;32.97;16.70;;;8.10;99.90;;;;;;4842893;29;20077;-80
2021/12/30 04:30:28;;;;;;;28.80;17.15;;;8.10;99.90;;;;;;4842951;29;20033;-77
2021/12/30 04:32:53;;;;;;;27.63;18.63;;;8.00;99.90;;;;;;4842702;29;20054;-82
2021/12/30 04:35:19;;;;;;;27.50;17.77;;;8.00;99.90;;;;;;4842841;29;20086;-81
2021/12/30 04:37:45;;;;;;;27.83;19.23;;;8.00;99.90;;;;;;4842610;29;20479;-77
2021/12/30 04:40:12;;;;;;;34.00;21.75;;;8.00;99.90;;;;;;4841033;29;20026;-82
2021/12/30 04:42:38;;;;;;;32.10;21.30;;;7.90;99.90;;;;;;4841891;29;20483;-77
2021/12/30 04:45:05;;;;;;;27.90;20.67;;;7.90;99.90;;;;;;4842230;29;20175;-81
2021/12/30 04:47:31;;;;;;;32.58;22.00;;;7.90;99.90;;;;;;4842262;29;20029;-75
2021/12/30 04:49:57;;;;;;;30.02;21.23;;;7.80;99.90;;;;;;4841393;29;20026;-80
2021/12/30 04:52:25;;;;;;;31.27;20.05;;;7.80;99.90;;;;;;4842406;29;20026;-82
2021/12/30 04:54:50;;;;;;;42.20;19.92;;;7.80;99.90;;;;;;4840802;29;20033;-82
2021/12/30 04:57:16;;;;;;;29.77;19.58;;;7.80;99.90;;;;;;4840882;29;20041;-77
2021/12/30 04:59:42;;;;;;;35.83;21.30;;;7.80;99.90;;;;;;4841015;29;20108;-80
2021/12/30 05:02:08;;;;;;;35.42;20.88;;;7.80;99.90;;;;;;4840772;29;20022;-80
2021/12/30 05:04:33;;;;;;;31.48;20.25;;;7.80;99.90;;;;;;4840575;29;20045;-81
2021/12/30 05:06:59;;;;;;;30.77;21.35;;;7.80;99.90;;;;;;4840902;29;20368;-81
2021/12/30 05:09:25;;;;;;;35.95;21.40;;;7.80;99.90;;;;;;4843811;29;20030;-81
2021/12/30 05:11:50;;;;;;;28.75;20.55;;;7.80;99.90;;;;;;4843626;29;20036;-80
2021/12/30 05:14:17;;;;;;;35.90;24.08;;;7.80;99.90;;;;;;4842360;29;20511;-79
2021/12/30 05:16:44;;;;;;;40.90;24.25;;;7.80;99.90;;;;;;4842019;29;20094;-81
2021/12/30 05:19:09;;;;;;;35.13;24.20;;;7.80;99.90;;;;;;4842435;29;20471;-81
2021/12/30 05:21:35;;;;;;;36.70;24.60;;;7.80;99.90;;;;;;4842333;29;20058;-80
2021/12/30 05:24:01;;;;;;;40.78;25.45;;;7.80;99.90;;;;;;4842052;29;20073;-79
2021/12/30 05:26:28;;;;;;;40.20;25.23;;;7.80;99.90;;;;;;4841793;29;20395;-81
2021/12/30 05:28:58;;;;;;;35.03;24.67;;;7.80;99.90;;;;;;4842059;29;20034;-82
2021/12/30 05:31:25;;;;;;;33.65;22.90;;;7.70;99.90;;;;;;4842027;29;20026;-81
2021/12/30 05:33:51;;;;;;;34.47;22.17;;;7.70;99.90;;;;;;4842250;29;20038;-82
2021/12/30 05:36:17;;;;;;;30.40;21.15;;;7.80;99.90;;;;;;4842371;29;20060;-81
2021/12/30 05:38:43;;;;;;;32.53;23.45;;;7.70;99.90;;;;;;4845995;29;20030;-80
2021/12/30 05:41:09;;;;;;;35.22;22.90;;;7.70;99.90;;;;;;4841927;29;20026;-80
2021/12/30 05:43:35;;;;;;;32.92;22.13;;;7.70;99.90;;;;;;4841849;29;20040;-80
2021/12/30 05:46:00;;;;;;;36.63;21.77;;;7.60;99.90;;;;;;4841459;29;20392;-80
2021/12/30 05:48:28;;;;;;;54.30;23.20;;;7.60;99.90;;;;;;4842014;29;20038;-80
2021/12/30 05:50:54;;;;;;;40.97;22.27;;;7.60;99.90;;;;;;4848419;29;20025;-80
2021/12/30 05:53:20;;;;;;;37.40;21.27;;;7.60;99.90;;;;;;4860634;29;20037;-80
2021/12/30 05:55:46;;;;;;;38.38;21.23;;;7.50;99.90;;;;;;4860136;29;20041;-78
2021/12/30 05:58:12;;;;;;;32.33;21.85;;;7.50;99.90;;;;;;4860096;29;20030;-80
2021/12/30 06:00:38;;;;;;;31.45;20.48;;;7.50;99.90;;;;;;4860437;29;20125;-77
2021/12/30 06:03:03;;;;;;;36.88;20.25;;;7.50;99.90;;;;;;4860642;29;20025;-81
2021/12/30 06:05:29;;;;;;;31.17;20.13;;;7.50;99.90;;;;;;4860836;29;20033;-80
2021/12/30 06:07:55;;;;;;;37.28;20.70;;;7.50;99.90;;;;;;4860825;29;20093;-79
2021/12/30 06:10:20;;;;;;;42.92;19.70;;;7.50;99.90;;;;;;4860153;29;20622;-81
2021/12/30 06:12:47;;;;;;;35.90;19.83;;;7.50;99.90;;;;;;4860239;29;20126;-81
2021/12/30 06:15:13;;;;;;;36.50;20.08;;;7.50;99.90;;;;;;4843491;29;20041;-81
2021/12/30 06:17:39;;;;;;;42.08;22.10;;;7.50;99.90;;;;;;4860154;29;20030;-80
2021/12/30 06:20:07;;;;;;;33.67;20.40;;;7.40;99.90;;;;;;4859908;29;20025;-83
2021/12/30 06:22:33;;;;;;;42.08;20.73;;;7.50;99.90;;;;;;4860171;29;20100;-82
2021/12/30 06:24:58;;;;;;;208.82;28.85;;;7.40;99.90;;;;;;4860167;29;20178;-83
2021/12/30 06:27:24;;;;;;;165.52;32.15;;;7.30;99.90;;;;;;4860008;29;20036;-82
2021/12/30 06:29:50;;;;;;;262.55;36.15;;;7.20;99.90;;;;;;4862934;29;20497;-76
2021/12/30 06:32:15;;;;;;;327.95;35.72;;;7.10;99.90;;;;;;4861690;29;20057;-85
2021/12/30 06:34:41;;;;;;;355.60;39.25;;;7.10;99.90;;;;;;4863471;29;20022;-83
2021/12/30 06:37:07;;;;;;;442.92;42.47;;;7.10;99.90;;;;;;4863666;29;20478;-83
2021/12/30 06:39:32;;;;;;;221.93;39.75;;;7.10;99.90;;;;;;4863622;29;20472;-84
2021/12/30 06:41:58;;;;;;;156.68;37.45;;;7.10;99.90;;;;;;4863555;29;20044;-87
2021/12/30 06:44:24;;;;;;;375.45;38.38;;;7.10;99.90;;;;;;4863392;29;20021;-83
2021/12/30 06:46:57;;;;;;;143.57;36.58;;;7.10;99.90;;;;;;4863474;29;20120;-82
2021/12/30 06:49:24;;;;;;;188.05;36.35;;;7.10;99.90;;;;;;4847376;29;20428;-81
2021/12/30 06:51:50;;;;;;;156.40;36.42;;;7.10;99.90;;;;;;4863088;29;20025;-82
2021/12/30 06:54:16;;;;;;;168.73;38.30;;;7.10;99.90;;;;;;4862971;29;20387;-82
2021/12/30 06:56:42;;;;;;;127.38;37.17;;;7.10;99.90;;;;;;4863337;29;20029;-82
2021/12/30 06:59:08;;;;;;;295.25;37.35;;;7.00;99.90;;;;;;4863037;29;20036;-81
2021/12/30 07:01:34;;;;;;;114.78;38.22;;;7.10;99.90;;;;;;4863069;29;20033;-82
2021/12/30 07:03:59;;;;;;;187.10;37.88;;;7.00;99.90;;;;;;4861978;29;20063;-81
2021/12/30 07:06:25;;;;;;;183.10;38.78;;;7.00;99.90;;;;;;4861701;29;20491;-81
2021/12/30 07:08:51;;;;;;;223.80;42.38;;;7.10;99.90;;;;;;4861717;29;20030;-82
2021/12/30 07:11:16;;;;;;;88.53;36.58;;;7.10;99.90;;;;;;4861483;29;20038;-77
2021/12/30 07:13:42;;;;;;;176.75;39.40;;;7.10;99.90;;;;;;4862992;29;20028;-82
2021/12/30 07:16:08;;;;;;;173.57;37.60;;;7.20;99.90;;;;;;4862127;29;20423;-82
2021/12/30 07:18:34;;;;;;;86.95;37.03;;;7.20;99.90;;;;;;4862514;29;20032;-81
2021/12/30 07:20:59;;;;;;;80.93;37.38;;;7.20;99.90;;;;;;4862235;29;20379;-82
2021/12/30 07:23:25;;;;;;;71.78;35.05;;;7.30;99.90;;;;;;4862478;29;20112;-82
2021/12/30 07:25:52;;;;;;;76.18;32.67;;;7.40;99.90;;;;;;4862259;29;20046;-81
2021/12/30 07:28:18;;;;;;;112.30;40.80;;;7.50;99.90;;;;;;4862143;29;20081;-79
2021/12/30 07:30:44;;;;;;;77.68;37.08;;;7.60;99.90;;;;;;4862224;29;20033;-81
2021/12/30 07:33:09;;;;;;;70.90;37.47;;;7.70;99.90;;;;;;4862136;29;20057;-80
2021/12/30 07:35:36;;;;;;;70.32;37.25;;;7.80;99.90;;;;;;4861388;29;20036;-81
2021/12/30 07:38:02;;;;;;;72.35;31.30;;;7.90;99.90;;;;;;4862111;29;20053;-79
2021/12/30 07:40:29;;;;;;;52.17;27.67;;;8.10;99.90;;;;;;4862384;29;20383;-81
2021/12/30 07:42:54;;;;;;;48.25;27.90;;;8.40;99.90;;;;;;4862363;29;20033;-82
2021/12/30 07:45:20;;;;;;;39.78;24.42;;;8.70;99.90;;;;;;4862280;29;20060;-81
2021/12/30 07:47:46;;;;;;;43.53;23.02;;;9.20;99.90;;;;;;4862197;29;20037;-82
2021/12/30 07:50:12;;;;;;;37.78;23.10;;;9.60;99.90;;;;;;4862111;29;20025;-79
2021/12/30 07:52:39;;;;;;;37.63;22.10;;;10.00;99.90;;;;;;4862007;29;20435;-81
2021/12/30 07:55:07;;;;;;;34.00;21.42;;;10.20;99.90;;;;;;4861637;29;20037;-81
2021/12/30 07:57:33;;;;;;;52.80;26.25;;;10.40;99.90;;;;;;4862120;29;20013;-81
2021/12/30 07:59:59;;;;;;;52.03;26.88;;;10.60;99.90;;;;;;4845325;29;20113;-82
2021/12/30 08:02:24;;;;;;;44.88;26.05;;;10.80;99.90;;;;;;4862137;29;20029;-82
2021/12/30 08:04:50;;;;;;;34.42;21.90;;;11.00;99.90;;;;;;4845649;29;20124;-82
2021/12/30 08:07:20;;;;;;;34.33;21.98;;;11.40;99.90;;;;;;4861982;29;20113;-81
2021/12/30 08:09:46;;;;;;;32.90;20.30;;;11.70;99.90;;;;;;4861708;29;20036;-81
2021/12/30 08:12:11;;;;;;;30.80;18.85;;;12.00;99.90;;;;;;4861880;29;20029;-81
2021/12/30 08:14:37;;;;;;;30.38;19.40;;;12.60;99.90;;;;;;4861854;29;20526;-81
2021/12/30 08:17:03;;;;;;;27.20;17.63;;;13.00;99.90;;;;;;4862010;29;20056;-81
2021/12/30 08:19:29;;;;;;;24.73;16.73;;;13.40;99.90;;;;;;4861819;29;20029;-80
2021/12/30 08:21:55;;;;;;;22.70;14.70;;;13.40;99.90;;;;;;4861422;29;20037;-82
2021/12/30 08:24:21;;;;;;;20.77;15.23;;;13.60;99.90;;;;;;4861614;29;20057;-81
2021/12/30 08:26:47;;;;;;;27.50;16.25;;;14.10;99.90;;;;;;4861527;29;20349;-80
2021/12/30 08:29:13;;;;;;;22.33;14.57;;;14.50;99.90;;;;;;4861536;29;20471;-82
2021/12/30 08:31:39;;;;;;;21.92;13.50;;;15.00;99.90;;;;;;4861173;29;20044;-82
2021/12/30 08:34:05;;;;;;;20.92;14.25;;;15.50;99.90;;;;;;4861387;29;20037;-80
2021/12/30 08:36:32;;;;;;;23.98;13.80;;;15.80;99.90;;;;;;4861226;29;20029;-79
2021/12/30 08:38:57;;;;;;;19.13;13.25;;;15.80;99.90;;;;;;4861101;29;20086;-81
2021/12/30 08:41:23;;;;;;;18.15;13.20;;;16.10;99.90;;;;;;4861398;29;20597;-81
2021/12/30 08:43:49;;;;;;;21.55;12.88;;;16.40;99.90;;;;;;4860440;29;20036;-80
2021/12/30 08:46:23;;;;;;;22.48;13.60;;;16.70;99.90;;;;;;4860977;29;20105;-73
2021/12/30 08:48:49;;;;;;;18.70;12.90;;;17.20;99.90;;;;;;4860959;29;20108;-83
2021/12/30 08:51:14;;;;;;;20.95;14.18;;;17.60;99.90;;;;;;4860423;29;20061;-83
2021/12/30 08:53:41;;;;;;;23.45;14.98;;;17.90;99.90;;;;;;4860322;29;20555;-78
2021/12/30 08:56:14;;;;;;;22.17;14.15;;;18.40;99.90;;;;;;4859823;29;20029;-80
2021/12/30 08:58:40;;;;;;;24.33;14.27;;;18.90;99.90;;;;;;4860317;29;20034;-82
2021/12/30 09:01:06;;;;;;;23.15;14.68;;;19.40;99.90;;;;;;4860495;29;20068;-83
2021/12/30 09:03:32;;;;;;;21.67;14.60;;;20.00;99.90;;;;;;4860287;29;20057;-83
2021/12/30 09:05:58;;;;;;;25.45;14.98;;;20.10;99.90;;;;;;4860102;29;20443;-80
2021/12/30 09:08:23;;;;;;;32.60;17.33;;;20.30;99.90;;;;;;4859766;29;20025;-83
2021/12/30 09:10:50;;;;;;;24.67;15.23;;;20.60;99.90;;;;;;4858701;29;20022;-82
2021/12/30 09:13:18;;;;;;;21.98;15.05;;;20.70;99.90;;;;;;4858433;29;20082;-81
2021/12/30 09:15:45;;;;;;;24.17;16.13;;;20.60;99.90;;;;;;4860230;29;20025;-83
2021/12/30 09:18:11;;;;;;;25.17;16.08;;;20.30;99.90;;;;;;4859967;29;20491;-83
2021/12/30 09:20:39;;;;;;;24.98;14.05;;;20.00;99.90;;;;;;4857363;29;20444;-83
2021/12/30 09:23:05;;;;;;;26.02;13.63;;;19.60;99.90;;;;;;4857353;29;20066;-83
2021/12/30 09:25:31;;;;;;;20.98;14.38;;;19.20;99.90;;;;;;4860001;29;20029;-86
2021/12/30 09:27:57;;;;;;;21.75;14.40;;;18.90;99.90;;;;;;4857132;29;20041;-77
2021/12/30 09:30:25;;;;;;;20.92;14.10;;;18.40;99.90;;;;;;4860841;29;20027;-86
2021/12/30 09:32:53;;;;;;;22.52;14.80;;;18.00;99.90;;;;;;4860379;29;20451;-84
2021/12/30 09:35:19;;;;;;;27.40;17.77;;;17.70;99.90;;;;;;4857825;29;20108;-81
2021/12/30 09:37:45;;;;;;;28.20;18.83;;;17.50;99.90;;;;;;4859922;29;20120;-84
2021/12/30 09:40:15;;;;;;;30.10;20.00;;;17.30;99.90;;;;;;4858980;29;20488;-78
2021/12/30 09:42:45;;;;;;;32.90;19.55;;;17.10;99.90;;;;;;4838749;29;20022;-84
2021/12/30 09:45:11;;;;;;;39.00;20.75;;;17.10;99.90;;;;;;4855733;29;20407;-80
2021/12/30 09:48:06;;;;;;;36.78;20.77;;;17.10;99.90;;;;;;4860262;29;20028;-79
2021/12/30 09:50:38;;;;;;;33.38;20.90;;;16.80;99.90;;;;;;4856353;29;20033;-79
2021/12/30 09:53:03;;;;;;;;;;;16.80;99.90;;;;;;4860263;29;20398;-79
2021/12/30 09:55:30;;;;;;;31.77;20.00;;;17.00;99.90;;;;;;4859916;29;19908;-75
2021/12/30 09:57:56;;;;;;;31.92;19.95;;;17.20;99.90;;;;;;4859745;29;20559;-79
2021/12/30 10:00:23;;;;;;;35.75;20.20;;;17.50;99.90;;;;;;4840573;29;20120;-80
2021/12/30 10:02:49;;;;;;;40.55;20.60;;;17.60;99.90;;;;;;4860623;29;20089;-73
2021/12/30 10:05:22;;;;;;;39.25;20.60;;;17.60;99.90;;;;;;4863359;29;20033;-78
2021/12/30 10:07:48;;;;;;;34.88;20.27;;;17.80;99.90;;;;;;4863457;29;20049;-77
2021/12/30 10:10:30;;;;;;;50.05;20.48;;;17.90;99.90;;;;;;4863168;29;20451;-80
2021/12/30 10:12:57;;;;;;;;;;;18.00;99.90;;;;;;4863443;29;20033;-68
2021/12/30 10:15:25;;;;;;;31.92;20.13;;;18.10;99.90;;;;;;4862566;29;19912;-78
2021/12/30 10:18:00;;;;;;;33.42;20.92;;;18.30;99.90;;;;;;4862605;29;20399;-80
2021/12/30 10:20:29;;;;;;;35.05;21.23;;;18.40;99.90;;;;;;4862822;29;20474;-80
2021/12/30 10:23:08;;;;;;;32.30;21.13;;;18.50;99.90;;;;;;4860221;29;20474;-75
2021/12/30 10:25:39;;;;;;;32.90;20.52;;;18.50;99.90;;;;;;4862357;29;20029;-77
2021/12/30 10:28:27;;;;;;;33.93;23.53;;;18.60;99.90;;;;;;4862816;29;20029;-82
2021/12/30 10:31:13;;;;;;;31.05;22.05;;;18.50;99.90;;;;;;4862978;29;20029;-82
2021/12/30 10:34:00;;;;;;;34.63;23.20;;;18.40;99.90;;;;;;4862526;29;20133;-77
2021/12/30 10:36:41;;;;;;;31.80;22.88;;;18.40;99.90;;;;;;4862738;29;20025;-71
2021/12/30 10:39:34;;;;;;;35.15;22.88;;;18.40;99.90;;;;;;4862538;29;20057;-77
2021/12/30 10:42:05;;;;;;;31.23;20.85;;;18.50;99.90;;;;;;4859036;29;20038;-71
2021/12/30 10:44:50;;;;;;;30.33;22.73;;;18.60;99.90;;;;;;4862152;29;20022;-74
2021/12/30 10:47:17;;;;;;;36.47;23.30;;;18.70;99.90;;;;;;4862405;29;20037;-76
2021/12/30 10:49:43;;;;;;;40.25;22.10;;;18.80;99.90;;;;;;4862638;29;20030;-77
2021/12/30 10:52:11;;;;;;;36.00;22.23;;;19.10;99.90;;;;;;4862531;29;20489;-76
2021/12/30 10:54:39;;;;;;;34.65;21.92;;;19.50;99.90;;;;;;4862258;29;20081;-76
2021/12/30 10:57:07;;;;;;;28.27;20.30;;;19.60;99.90;;;;;;4862338;29;20014;-77
2021/12/30 10:59:51;;;;;;;29.92;22.52;;;19.60;99.90;;;;;;4861866;29;20025;-70
2021/12/30 11:02:21;;;;;;;34.00;23.77;;;19.60;99.90;;;;;;4862703;29;20112;-69
2021/12/30 11:04:49;;;;;;;27.73;20.95;;;19.60;99.90;;;;;;4862755;29;20033;-72
2021/12/30 11:07:38;;;;;;;31.42;21.65;;;19.80;99.90;;;;;;4862235;29;20124;-75
2021/12/30 11:10:05;;;;;;;30.02;22.30;;;19.80;99.90;;;;;;4862370;29;20553;-72
2021/12/30 11:12:38;;;;;;;29.40;22.20;;;19.70;99.90;;;;;;4862257;29;20130;-78
2021/12/30 11:15:20;;;;;;;27.42;20.45;;;19.70;99.90;;;;;;4861693;29;20041;-75
2021/12/30 11:17:46;;;;;;;28.85;20.90;;;19.80;99.90;;;;;;4861848;29;20021;-78
2021/12/30 11:20:15;;;;;;;26.75;19.90;;;19.80;99.90;;;;;;4861403;29;20032;-78
2021/12/30 11:22:41;;;;;;;30.40;20.70;;;20.00;99.90;;;;;;4859996;29;20029;-77
2021/12/30 11:25:13;;;;;;;29.60;20.77;;;20.00;99.90;;;;;;4861443;29;20085;-75
2021/12/30 11:27:40;;;;;;;29.63;20.08;;;20.10;99.90;;;;;;4858327;29;20033;-76
2021/12/30 11:30:15;;;;;;;27.67;20.15;;;20.20;99.90;;;;;;4861508;29;20417;-78
2021/12/30 11:32:43;;;;;;;26.55;20.27;;;20.20;99.90;;;;;;4845430;29;20061;-77
2021/12/30 11:35:10;;;;;;;28.05;19.50;;;19.90;99.90;;;;;;4861551;29;20060;-77
2021/12/30 11:37:36;;;;;;;30.05;20.70;;;19.90;99.90;;;;;;4861297;29;20025;-70
2021/12/30 11:40:12;;;;;;;27.08;19.95;;;19.80;99.90;;;;;;4861016;29;20029;-77
2021/12/30 11:42:40;;;;;;;31.02;19.73;;;19.60;99.90;;;;;;4861488;29;20029;-74
2021/12/30 11:45:23;;;;;;;27.17;20.80;;;19.60;99.90;;;;;;4860605;29;20022;-75
2021/12/30 11:47:49;;;;;;;29.92;21.05;;;19.40;99.90;;;;;;4860647;29;20490;-78
2021/12/30 11:50:36;;;;;;;28.15;19.17;;;19.20;99.90;;;;;;4861298;29;20029;-77
2021/12/30 11:53:12;;;;;;;29.67;19.73;;;19.10;99.90;;;;;;4859131;29;20069;-78
2021/12/30 11:55:57;;;;;;;28.33;20.58;;;18.90;99.90;;;;;;4860992;29;20033;-76
2021/12/30 12:01:02;;;;;;;30.33;21.17;;;18.00;99.90;;;;;;4861059;29;20165;-75
2021/12/30 12:03:39;;;;;;;28.35;20.42;;;17.60;99.90;;;;;;4861260;29;20033;-77
2021/12/30 12:06:30;;;;;;;42.22;25.00;;;17.10;99.90;;;;;;4860750;29;20482;-74
2021/12/30 12:09:13;;;;;;;36.13;21.75;;;16.70;99.90;;;;;;4861110;29;20025;-78
2021/12/30 12:11:41;;;;;;;30.58;20.77;;;16.40;99.90;;;;;;4859635;29;20054;-78
2021/12/30 12:14:25;;;;;;;32.97;23.92;;;16.10;99.90;;;;;;4860023;29;20029;-79
2021/12/30 12:16:53;;;;;;;31.73;22.90;;;15.70;99.90;;;;;;4860174;29;20057;-79
2021/12/30 12:19:21;;;;;;;30.58;22.00;;;15.40;99.90;;;;;;4860550;29;20108;-77
2021/12/30 12:21:51;;;;;;;30.98;23.02;;;15.30;99.90;;;;;;4860835;29;20440;-78
2021/12/30 12:24:22;;;;;;;33.75;23.10;;;15.30;99.90;;;;;;4860453;29;20104;-78
2021/12/30 12:26:50;;;;;;;38.65;24.00;;;15.20;99.90;;;;;;4859437;29;20449;-77
2021/12/30 12:29:42;;;;;;;33.85;23.58;;;15.20;99.90;;;;;;4860436;29;20049;-76
2021/12/30 12:32:12;;;;;;;32.70;21.88;;;15.00;99.90;;;;;;4831815;29;20049;-77
2021/12/30 12:34:43;;;;;;;31.33;22.40;;;14.90;99.90;;;;;;4860116;29;20169;-77
2021/12/30 12:37:27;;;;;;;;;;;14.80;99.90;;;;;;4858184;29;20029;-78
2021/12/30 12:40:02;;;;;;;34.40;24.08;;;14.70;99.90;;;;;;4846342;29;20369;-77